Accueil
METAR-TAF:

METAR-TAF

Aéroports :

Moscou-Cheremetievo, Russie

Aéroport de Moscou-Cheremetievo

latitude: 55-59N, longitude: 037-30E, altitude: 190 m

Observation

Le bulletin a été fait il y a 21 minutes, à 01:30 UTC
Vent 2 kt de est
Température 18°C
Humidité 73%
Pression 1022 hPa
Visibilité 10 km ou plus
pas de nuages en-dessous de 1500 mètres et pas de cumulonimbus.

METAR: UUEE 190130Z 10001MPS CAVOK 18/13 Q1022 R24L/CLRD62 NOSIG

Heure: 04:51 (01:51 UTC)

Prévision

Le bulletin a été fait il y a 2 heures et 51 minutes, à 23:00 UTC
Prévision valable du 19 à 00 UTC au 19 à 24 UTC
Vent 10 kt de sud
Visibilité 10 km ou plus
pas de nuages en-dessous de 1500 mètres et pas de cumulonimbus.

TAF: UUEE 182300Z 1900/1924 18005MPS CAVOK TX29/1912Z TN16/1903Z

Observations et prévisions météorologiques de plus de 4000 aéroports (messages METAR et TAF).

Les stations disponibles sont représentées par des disques jaunes et rouges sur la carte.

Passer la souris dessus pour voir le nom de la station.

Cliquer dessus pour voir les observations et prévisions météorologiques.

Pour changer de carte: cliquez sur les boutons verts avec une croix noire pour zoomer, sur le bouton vert avec un tiret pour effectuer un zoom arrière, ou sur les flèches vertes pour les cartes adjacentes.


METAR-TAF: